Time;durP1;ratioP1;P1;durP2;ratioP2;P2;SDS_P1;SDS_P2;PMS_P1;PMS_P2;Temp;Humidity;BMP_temperature;BMP_pressure;BME280_temperature;BME280_humidity;BME280_pressure;Samples;Min_cycle;Max_cycle;Signal;HPM_P1;HPM_P2
2021/10/17 00:01:27;;;;;;;25.93;14.10;;;;;;;9.42;100.00;100095.44;1730023;83;21043;-72
2021/10/17 00:03:53;;;;;;;26.83;15.07;;;;;;;9.45;100.00;100093.78;1721792;83;21031;-72
2021/10/17 00:06:27;;;;;;;25.87;15.07;;;;;;;9.46;100.00;100090.08;1721415;83;21066;-71
2021/10/17 00:08:50;;;;;;;25.30;13.83;;;;;;;9.46;100.00;100090.92;1718027;83;21532;-72
2021/10/17 00:11:17;;;;;;;24.03;12.90;;;;;;;9.46;100.00;100086.88;1693202;85;21528;-72
2021/10/17 00:13:43;;;;;;;25.90;13.00;;;;;;;9.47;100.00;100079.61;1721392;83;21489;-72
2021/10/17 00:16:10;;;;;;;24.03;12.73;;;;;;;9.47;100.00;100083.66;1721862;83;20995;-72
2021/10/17 00:18:37;;;;;;;25.10;12.63;;;;;;;9.47;100.00;100088.58;1692914;85;20999;-71
2021/10/17 00:21:03;;;;;;;24.40;13.43;;;;;;;9.45;100.00;100079.77;1721877;83;21105;-72
2021/10/17 00:23:32;;;;;;;26.57;14.03;;;;;;;9.45;100.00;100084.33;1721518;83;21047;-71
2021/10/17 00:25:59;;;;;;;24.83;14.40;;;;;;;9.41;100.00;100081.11;1721461;83;21091;-72
2021/10/17 00:28:26;;;;;;;34.83;19.40;;;;;;;9.37;100.00;100076.22;1721344;83;21543;-71
2021/10/17 00:30:53;;;;;;;41.10;20.50;;;;;;;9.30;100.00;100080.06;1692804;84;20999;-71
2021/10/17 00:33:22;;;;;;;41.83;21.60;;;;;;;9.23;100.00;100083.91;1721459;83;21070;-71
2021/10/17 00:35:51;;;;;;;41.70;23.23;;;;;;;9.17;100.00;100083.70;1721696;83;21046;-72
2021/10/17 00:38:17;;;;;;;46.40;23.40;;;;;;;9.12;100.00;100083.69;1723532;83;21492;-71
2021/10/17 00:40:44;;;;;;;43.97;22.90;;;;;;;9.08;100.00;100089.06;1727891;83;21038;-72
2021/10/17 00:43:10;;;;;;;40.57;22.47;;;;;;;9.05;100.00;100085.84;1727881;83;21046;-71
2021/10/17 00:45:37;;;;;;;39.93;20.20;;;;;;;9.01;100.00;100083.97;1721971;83;21016;-71
2021/10/17 00:48:04;;;;;;;38.00;21.07;;;;;;;8.98;100.00;100082.94;1783974;80;21037;-71
2021/10/17 00:50:31;;;;;;;40.07;20.07;;;;;;;8.97;100.00;100082.58;1787171;80;20971;-72
2021/10/17 00:52:58;;;;;;;39.80;20.30;;;;;;;8.94;100.00;100085.59;1787378;80;21025;-72
2021/10/17 00:55:29;;;;;;;36.63;19.77;;;;;;;8.93;100.00;100083.91;1787149;80;21025;-72
2021/10/17 00:57:59;;;;;;;37.50;19.77;;;;;;;8.91;100.00;100086.77;1787348;80;21069;-72
2021/10/17 01:00:25;;;;;;;35.93;19.70;;;;;;;8.89;100.00;100078.50;1787200;80;21491;-72
2021/10/17 01:02:51;;;;;;;35.50;18.37;;;;;;;8.89;100.00;100083.39;1787176;80;21018;-72
2021/10/17 01:05:18;;;;;;;33.73;17.53;;;;;;;8.91;100.00;100084.58;1787093;80;21010;-73
2021/10/17 01:07:46;;;;;;;31.97;17.07;;;;;;;8.91;100.00;100084.07;1763217;80;21002;-72
2021/10/17 01:10:17;;;;;;;29.30;15.67;;;;;;;8.95;100.00;100086.45;1786966;80;21532;-72
2021/10/17 01:12:45;;;;;;;34.27;16.60;;;;;;;8.98;100.00;100086.11;1787106;80;21033;-71
2021/10/17 01:15:12;;;;;;;32.17;16.43;;;;;;;8.98;100.00;100077.55;1787345;80;21459;-71
2021/10/17 01:17:41;;;;;;;30.10;15.63;;;;;;;8.99;100.00;100077.03;1783524;80;21022;-71
2021/10/17 01:20:09;;;;;;;31.77;15.67;;;;;;;9.00;100.00;100082.27;1787514;80;21547;-71
2021/10/17 01:22:38;;;;;;;26.73;14.03;;;;;;;8.99;100.00;100088.66;1787095;80;21002;-72
2021/10/17 01:25:05;;;;;;;25.77;13.33;;;;;;;8.99;100.00;100085.95;1787013;80;20986;-73
2021/10/17 01:27:34;;;;;;;26.57;14.13;;;;;;;8.99;100.00;100081.08;1786913;80;21002;-72
2021/10/17 01:30:00;;;;;;;26.33;13.73;;;;;;;9.00;100.00;100086.83;1787300;80;20994;-72
2021/10/17 01:32:29;;;;;;;24.50;13.37;;;;;;;8.98;100.00;100086.98;1786885;80;21057;-72
2021/10/17 01:34:56;;;;;;;28.73;15.87;;;;;;;8.97;100.00;100084.44;1787128;80;20982;-72
2021/10/17 01:37:23;;;;;;;28.53;15.23;;;;;;;8.93;100.00;100080.70;1787346;80;20998;-72
2021/10/17 01:39:50;;;;;;;26.37;14.97;;;;;;;8.90;100.00;100088.27;1787301;80;21006;-72
2021/10/17 01:42:17;;;;;;;31.90;16.03;;;;;;;8.87;100.00;100093.49;1787346;80;20994;-70
2021/10/17 01:44:46;;;;;;;29.93;15.13;;;;;;;8.84;100.00;100091.11;1790586;80;21051;-71
2021/10/17 01:47:13;;;;;;;25.43;14.70;;;;;;;8.83;100.00;100094.79;1793416;80;21067;-72
2021/10/17 01:49:40;;;;;;;25.83;14.97;;;;;;;8.80;100.00;100094.27;1793669;80;21047;-71
2021/10/17 01:52:08;;;;;;;30.73;15.53;;;;;;;8.79;100.00;100104.72;1793083;80;21012;-71
2021/10/17 01:54:37;;;;;;;25.60;14.23;;;;;;;8.76;100.00;100107.72;1793152;80;21509;-71
2021/10/17 01:57:04;;;;;;;27.57;14.60;;;;;;;8.72;100.00;100109.38;1793438;80;21035;-72
2021/10/17 01:59:32;;;;;;;28.03;15.30;;;;;;;8.71;100.00;100118.97;1793358;80;21059;-70
2021/10/17 02:02:01;;;;;;;26.33;14.33;;;;;;;8.70;100.00;100122.17;1788450;80;21015;-71
2021/10/17 02:04:28;;;;;;;25.97;14.00;;;;;;;8.68;100.00;100120.66;1793167;80;21026;-71
2021/10/17 02:06:55;;;;;;;28.07;14.40;;;;;;;8.67;100.00;100118.44;1792867;80;20992;-71
2021/10/17 02:09:22;;;;;;;25.20;13.40;;;;;;;8.66;100.00;100119.45;1792999;80;21540;-71
2021/10/17 02:11:49;;;;;;;25.53;13.97;;;;;;;8.64;100.00;100120.12;1793215;80;21027;-72
2021/10/17 02:14:15;;;;;;;25.17;14.70;;;;;;;8.62;100.00;100120.75;1793375;80;21039;-72
2021/10/17 02:16:42;;;;;;;25.83;14.77;;;;;;;8.61;100.00;100114.20;1793281;80;21068;-72
2021/10/17 02:19:09;;;;;;;25.10;14.27;;;;;;;8.57;100.00;100120.41;1793539;80;20976;-72
2021/10/17 02:21:35;;;;;;;25.73;13.90;;;;;;;8.53;100.00;100112.27;1793185;80;20988;-72
2021/10/17 02:24:05;;;;;;;23.80;13.17;;;;;;;8.51;100.00;100112.92;1785370;80;21008;-72
2021/10/17 02:26:32;;;;;;;25.53;13.47;;;;;;;8.50;100.00;100117.48;1793441;80;21006;-72
2021/10/17 02:29:09;;;;;;;24.60;13.83;;;;;;;8.49;100.00;100109.55;1788512;80;21048;-70
2021/10/17 02:31:38;;;;;;;25.43;13.33;;;;;;;8.46;100.00;100113.89;1788596;80;21007;-71
2021/10/17 02:34:05;;;;;;;24.77;14.30;;;;;;;8.44;100.00;100105.13;1760493;80;21008;-72
2021/10/17 02:36:33;;;;;;;24.73;13.90;;;;;;;8.42;100.00;100104.41;1760749;80;21055;-72
2021/10/17 02:39:01;;;;;;;22.40;13.00;;;;;;;8.41;100.00;100100.88;1778488;80;21026;-71
2021/10/17 02:41:28;;;;;;;25.07;13.40;;;;;;;8.42;100.00;100101.23;1704503;84;21016;-71
2021/10/17 02:43:56;;;;;;;22.67;12.00;;;;;;;8.44;100.00;100099.73;1707652;83;21082;-71
2021/10/17 02:46:23;;;;;;;24.33;12.70;;;;;;;8.46;100.00;100100.42;1781197;80;21493;-72
2021/10/17 02:48:50;;;;;;;24.03;12.33;;;;;;;8.47;100.00;100098.92;1780702;80;21011;-71
2021/10/17 02:51:17;;;;;;;23.07;12.20;;;;;;;8.49;100.00;100097.42;1772551;80;20980;-72
2021/10/17 02:53:43;;;;;;;23.23;12.40;;;;;;;8.49;100.00;100092.03;1772386;81;21011;-71
2021/10/17 02:56:10;;;;;;;24.80;12.87;;;;;;;8.50;100.00;100090.53;1772234;80;21087;-70
2021/10/17 02:58:37;;;;;;;23.83;13.10;;;;;;;8.52;100.00;100091.73;1772159;81;21027;-72
2021/10/17 03:01:04;;;;;;;25.40;13.93;;;;;;;8.54;100.00;100087.02;1772523;81;21023;-70
2021/10/17 03:03:32;;;;;;;24.47;13.20;;;;;;;8.59;100.00;100087.87;1772066;80;21493;-72
2021/10/17 03:05:59;;;;;;;24.00;13.07;;;;;;;8.62;100.00;100080.32;1772325;81;20976;-72
2021/10/17 03:08:26;;;;;;;24.80;13.80;;;;;;;8.67;100.00;100084.73;1780924;80;21034;-72
2021/10/17 03:10:55;;;;;;;24.70;13.70;;;;;;;8.70;100.00;100085.78;1780712;80;21481;-72
2021/10/17 03:13:22;;;;;;;25.07;13.63;;;;;;;8.72;100.00;100087.81;1772671;80;21007;-72
2021/10/17 03:15:48;;;;;;;27.10;15.40;;;;;;;8.73;100.00;100086.83;1772457;81;21015;-71
2021/10/17 03:18:17;;;;;;;25.47;14.50;;;;;;;8.77;100.00;100079.77;1771979;80;21483;-72
2021/10/17 03:20:44;;;;;;;28.17;15.00;;;;;;;8.79;100.00;100080.45;1772517;81;21027;-71
2021/10/17 03:23:11;;;;;;;25.13;14.97;;;;;;;8.82;100.00;100081.47;1772401;81;21015;-70
2021/10/17 03:25:38;;;;;;;26.63;14.80;;;;;;;8.82;100.00;100078.29;1748520;81;21121;-72
2021/10/17 03:28:05;;;;;;;24.37;12.83;;;;;;;8.83;100.00;100072.38;1772659;81;20976;-72
2021/10/17 03:30:33;;;;;;;24.70;13.00;;;;;;;8.84;100.00;100068.70;1759924;81;21543;-71
2021/10/17 03:33:01;;;;;;;23.87;13.50;;;;;;;8.87;100.00;100067.00;1773465;81;21485;-71
2021/10/17 03:35:28;;;;;;;23.63;12.83;;;;;;;8.89;100.00;100067.20;1772322;80;21019;-73
2021/10/17 03:37:55;;;;;;;25.33;13.23;;;;;;;8.89;100.00;100065.86;1766870;80;20991;-70
2021/10/17 03:40:22;;;;;;;25.57;13.37;;;;;;;8.89;100.00;100065.86;1776406;81;20975;-73
2021/10/17 03:42:51;;;;;;;22.47;13.10;;;;;;;8.91;100.00;100069.75;1778423;81;20999;-71
2021/10/17 03:45:20;;;;;;;24.10;12.30;;;;;;;8.92;100.00;100071.42;1779861;81;20987;-72
2021/10/17 03:47:46;;;;;;;21.57;11.97;;;;;;;8.92;100.00;100073.64;1779280;81;21077;-72
2021/10/17 03:50:14;;;;;;;22.23;12.17;;;;;;;8.95;100.00;100071.63;1775518;81;21011;-71
2021/10/17 03:52:41;;;;;;;23.60;13.27;;;;;;;8.96;100.00;100064.73;1775690;81;21054;-72
2021/10/17 03:55:09;;;;;;;24.27;12.43;;;;;;;8.94;100.00;100062.66;1775793;81;20979;-71
2021/10/17 03:57:36;;;;;;;23.17;11.90;;;;;;;8.93;100.00;100066.38;1775448;81;21011;-71
2021/10/17 04:00:06;;;;;;;21.77;12.27;;;;;;;8.92;100.00;100060.63;1775758;81;21011;-71
2021/10/17 04:02:36;;;;;;;23.00;10.93;;;;;;;8.93;100.00;100067.73;1778052;80;21012;-73
2021/10/17 04:05:03;;;;;;;21.83;11.77;;;;;;;8.93;100.00;100067.22;1773380;81;21472;-71
2021/10/17 04:07:31;;;;;;;21.57;10.60;;;;;;;8.94;100.00;100069.41;1773452;81;21006;-71
2021/10/17 04:09:58;;;;;;;19.43;10.97;;;;;;;8.95;100.00;100072.45;1773157;81;21515;-71
2021/10/17 04:12:25;;;;;;;23.90;11.87;;;;;;;8.96;100.00;100072.81;1773403;81;20979;-72
2021/10/17 04:14:53;;;;;;;27.47;13.63;;;;;;;8.97;100.00;100077.19;1770224;81;21011;-71
2021/10/17 04:17:20;;;;;;;25.37;13.97;;;;;;;8.97;100.00;100079.88;1772928;81;21512;-70
2021/10/17 04:19:46;;;;;;;26.30;14.37;;;;;;;8.96;100.00;100084.08;1773607;81;20995;-71
2021/10/17 04:22:13;;;;;;;27.67;15.40;;;;;;;8.94;100.00;100085.59;1773362;81;21038;-72
2021/10/17 04:24:40;;;;;;;35.83;16.93;;;;;;;8.91;100.00;100085.92;1773323;81;21063;-72
2021/10/17 04:27:08;;;;;;;32.00;17.33;;;;;;;8.86;100.00;100082.34;1751258;81;21547;-72
2021/10/17 04:29:36;;;;;;;34.97;19.13;;;;;;;8.82;100.00;100084.16;1773269;81;21486;-71
2021/10/17 04:32:04;;;;;;;35.37;17.67;;;;;;;8.78;100.00;100089.53;1773270;81;21046;-71
2021/10/17 04:34:31;;;;;;;36.40;17.63;;;;;;;8.73;100.00;100089.52;1773385;81;21015;-73
2021/10/17 04:36:58;;;;;;;40.37;19.47;;;;;;;8.73;100.00;100099.47;1773103;81;20995;-72
2021/10/17 04:39:28;;;;;;;32.97;17.63;;;;;;;8.72;100.00;100102.64;1774308;80;21444;-72
2021/10/17 04:41:55;;;;;;;37.00;17.67;;;;;;;8.71;100.00;100101.45;1777492;81;21070;-71
2021/10/17 04:44:21;;;;;;;35.90;18.07;;;;;;;8.71;100.00;100101.45;1777570;81;21022;-70
2021/10/17 04:46:48;;;;;;;35.27;18.37;;;;;;;8.71;100.00;100108.19;1773286;80;21038;-71
2021/10/17 04:49:14;;;;;;;32.03;18.37;;;;;;;8.71;100.00;100108.19;1767927;80;21038;-72
2021/10/17 04:51:42;;;;;;;32.13;17.03;;;;;;;8.70;100.00;100108.70;1763261;81;21058;-72
2021/10/17 04:54:09;;;;;;;34.17;18.00;;;;;;;8.70;100.00;100108.70;1763878;80;21014;-72
2021/10/17 04:56:36;;;;;;;32.90;17.13;;;;;;;8.71;100.00;100110.88;1763416;80;21552;-72
2021/10/17 04:59:04;;;;;;;30.73;16.67;;;;;;;8.70;100.00;100114.09;1763526;81;21030;-71
2021/10/17 05:01:32;;;;;;;35.17;16.97;;;;;;;8.72;100.00;100112.08;1764467;80;21031;-71
2021/10/17 05:04:00;;;;;;;29.83;15.87;;;;;;;8.76;100.00;100108.56;1765198;80;20995;-71
2021/10/17 05:06:26;;;;;;;30.97;15.93;;;;;;;8.79;100.00;100108.25;1726914;83;21087;-72
2021/10/17 05:08:54;;;;;;;32.70;16.50;;;;;;;8.83;100.00;100108.78;1763528;80;21489;-72
2021/10/17 05:11:25;;;;;;;29.30;15.83;;;;;;;8.85;100.00;100108.98;1763448;80;21020;-72
2021/10/17 05:13:52;;;;;;;32.80;17.07;;;;;;;8.89;100.00;100112.22;1742211;81;21030;-72
2021/10/17 05:16:20;;;;;;;33.97;18.90;;;;;;;8.94;100.00;100113.91;1763422;80;21035;-71
2021/10/17 05:18:46;;;;;;;30.27;16.60;;;;;;;8.99;100.00;100114.78;1763479;80;21043;-72
2021/10/17 05:21:13;;;;;;;32.00;17.67;;;;;;;9.02;100.00;100124.75;1763324;80;21050;-72
2021/10/17 05:23:40;;;;;;;31.23;17.60;;;;;;;9.04;100.00;100118.69;1763963;81;21461;-71
2021/10/17 05:26:07;;;;;;;30.93;18.80;;;;;;;9.07;100.00;100118.89;1763646;80;21019;-71
2021/10/17 05:28:35;;;;;;;34.67;18.73;;;;;;;9.10;100.00;100122.59;1764314;80;21062;-71
2021/10/17 05:31:03;;;;;;;30.73;18.60;;;;;;;9.13;100.00;100119.59;1763295;80;21059;-71
2021/10/17 05:33:37;;;;;;;34.43;21.03;;;;;;;9.18;100.00;100125.87;1764015;80;21027;-72
2021/10/17 05:36:05;;;;;;;36.23;20.87;;;;;;;9.24;100.00;100130.12;1763360;81;21023;-71
2021/10/17 05:38:31;;;;;;;30.43;20.90;;;;;;;9.30;100.00;100132.17;1770439;80;20943;-71
2021/10/17 05:40:58;;;;;;;33.47;20.53;;;;;;;9.37;100.00;100129.68;1714648;84;21547;-72
2021/10/17 05:43:24;;;;;;;30.70;19.13;;;;;;;9.43;100.00;100129.02;1778885;80;21010;-71
2021/10/17 05:45:52;;;;;;;28.53;16.83;;;;;;;9.50;100.00;100132.77;1781718;80;21371;-71
2021/10/17 05:48:18;;;;;;;26.10;15.63;;;;;;;9.58;100.00;100133.33;1780143;80;21044;-71
2021/10/17 05:50:45;;;;;;;28.93;17.13;;;;;;;9.65;100.00;100132.14;1773561;81;21056;-72
2021/10/17 05:53:12;;;;;;;30.17;17.13;;;;;;;9.73;100.00;100134.05;1773624;81;21024;-71
2021/10/17 05:55:40;;;;;;;31.80;17.60;;;;;;;9.79;100.00;100125.28;1773465;81;21506;-72
2021/10/17 05:58:07;;;;;;;28.23;16.33;;;;;;;9.86;100.00;100129.88;1773763;81;21048;-72
2021/10/17 06:00:34;;;;;;;31.23;17.33;;;;;;;9.95;100.00;100130.75;1773535;81;21050;-71
2021/10/17 06:03:02;;;;;;;32.13;18.70;;;;;;;10.03;100.00;100125.86;1773750;81;21060;-72
2021/10/17 06:05:30;;;;;;;30.53;19.17;;;;;;;10.12;100.00;100126.21;1773476;81;21024;-71
2021/10/17 06:08:00;;;;;;;34.93;17.40;;;;;;;10.22;100.00;100125.56;1773544;81;21494;-71
2021/10/17 06:10:28;;;;;;;29.50;16.63;;;;;;;10.31;100.00;100126.94;1773524;81;21017;-72
2021/10/17 06:12:55;;;;;;;30.90;16.20;;;;;;;10.40;100.00;100129.49;1773896;81;21105;-72
2021/10/17 06:15:23;;;;;;;28.43;15.83;;;;;;;10.50;100.00;100123.94;1773549;81;20993;-72
2021/10/17 06:17:49;;;;;;;23.87;13.70;;;;;;;10.58;100.00;100126.62;1773814;81;21004;-73
2021/10/17 06:20:16;;;;;;;24.30;13.60;;;;;;;10.66;100.00;100124.45;1773615;80;21072;-70
2021/10/17 06:22:45;;;;;;;25.73;14.00;;;;;;;10.75;100.00;100125.29;1773960;81;21004;-71
2021/10/17 06:25:12;;;;;;;22.20;12.93;;;;;;;10.87;100.00;100128.47;1773302;81;21088;-72
2021/10/17 06:27:39;;;;;;;22.70;12.90;;;;;;;10.99;100.00;100127.09;1773453;81;21048;-71
2021/10/17 06:30:08;;;;;;;25.40;12.53;;;;;;;11.12;100.00;100129.27;1773690;81;21029;-71
2021/10/17 06:32:34;;;;;;;22.07;12.20;;;;;;;11.24;100.00;100137.88;1773705;81;21009;-71
2021/10/17 06:35:01;;;;;;;23.20;12.50;;;;;;;11.32;100.00;100136.00;1773893;81;21479;-71
2021/10/17 06:37:28;;;;;;;21.75;12.43;;;;;;;11.34;100.00;100139.37;1773471;81;20985;-71
2021/10/17 06:39:55;;;;;;;28.05;13.22;;;;;;;11.40;100.00;100141.39;1741771;82;21017;-70
2021/10/17 06:42:22;;;;;;;22.27;12.55;;;;;;;11.52;100.00;100143.20;1742008;82;21039;-72
2021/10/17 06:44:54;;;;;;;22.65;12.88;;;;;;;11.64;100.00;100148.25;1762095;81;21038;-73
2021/10/17 06:47:23;;;;;;;25.97;12.90;;;;;;;11.71;100.00;100146.01;1776170;80;21599;-72
2021/10/17 06:49:50;;;;;;;24.45;12.70;;;;;;;11.77;100.00;100142.61;1775741;81;21006;-72
2021/10/17 06:52:16;;;;;;;22.35;13.00;;;;;;;11.80;100.00;100137.34;1776164;81;21003;-72
2021/10/17 06:54:44;;;;;;;23.60;12.50;;;;;;;11.85;100.00;100137.66;1775841;81;21101;-72
2021/10/17 06:57:11;;;;;;;20.85;11.80;;;;;;;11.91;100.00;100136.13;1774998;81;21520;-71
2021/10/17 06:59:39;;;;;;;20.95;12.10;;;;;;;11.93;100.00;100136.79;1775984;81;21043;-71
2021/10/17 07:02:06;;;;;;;23.62;11.88;;;;;;;11.93;100.00;100132.72;1776903;80;20991;-71
2021/10/17 07:04:35;;;;;;;21.60;11.53;;;;;;;11.95;100.00;100130.19;1776877;80;21106;-72
2021/10/17 07:07:02;;;;;;;25.02;13.55;;;;;;;12.00;100.00;100135.57;1771170;81;21038;-70
2021/10/17 07:09:30;;;;;;;21.90;11.75;;;;;;;12.05;100.00;100135.89;1771009;81;21497;-71
2021/10/17 07:12:07;;;;;;;22.02;12.37;;;;;;;12.08;100.00;100137.73;1769407;81;20992;-71
2021/10/17 07:14:35;;;;;;;24.70;12.33;;;;;;;12.14;100.00;100139.70;1772612;80;21046;-70
2021/10/17 07:17:06;;;;;;;22.48;12.88;;;;;;;12.24;100.00;100137.30;1681932;83;20996;-71
2021/10/17 07:19:34;;;;;;;24.43;12.93;;;;;;;12.26;100.00;100135.25;1663405;86;21071;-71
2021/10/17 07:22:01;;;;;;;21.20;12.43;;;;;;;12.32;100.00;100134.03;1663763;86;21072;-71
2021/10/17 07:24:31;;;;;;;23.85;12.45;;;;;;;12.41;100.00;100134.81;1663522;86;21059;-70
2021/10/17 07:26:59;;;;;;;21.62;11.83;;;;;;;12.51;100.00;100134.03;1663606;86;21537;-72
2021/10/17 07:29:26;;;;;;;23.15;12.88;;;;;;;12.60;100.00;100128.03;1663167;86;21035;-71
2021/10/17 07:31:55;;;;;;;29.20;17.57;;;;;;;12.71;100.00;100134.89;1663406;86;21528;-73
2021/10/17 07:34:21;;;;;;;33.13;19.10;;;;;;;12.79;100.00;100134.00;1663680;86;21501;-71
2021/10/17 07:36:48;;;;;;;38.10;20.30;;;;;;;12.87;100.00;100128.48;1663702;86;20995;-72
2021/10/17 07:39:17;;;;;;;36.75;21.10;;;;;;;12.91;100.00;100134.72;1698745;83;21014;-71
2021/10/17 07:41:48;;;;;;;33.83;18.52;;;;;;;13.00;100.00;100134.13;1715383;84;21034;-72
2021/10/17 07:44:16;;;;;;;29.15;16.25;;;;;;;13.09;100.00;100133.54;1701510;84;21102;-71
2021/10/17 07:46:44;;;;;;;29.12;16.10;;;;;;;13.16;100.00;100133.65;1679762;85;21554;-71
2021/10/17 07:49:11;;;;;;;29.05;15.68;;;;;;;13.24;100.00;100136.26;1676072;85;21136;-70
2021/10/17 07:51:39;;;;;;;25.45;14.87;;;;;;;13.31;100.00;100137.23;1664608;86;21114;-71
2021/10/17 07:54:08;;;;;;;23.98;14.23;;;;;;;13.43;100.00;100133.54;1664566;86;21127;-71
2021/10/17 07:56:37;;;;;;;23.75;13.10;;;;;;;13.52;100.00;100132.41;1692293;84;21098;-71
2021/10/17 07:59:03;;;;;;;22.52;13.35;;;;;;;13.63;100.00;100140.59;1715232;83;21058;-72
2021/10/17 08:01:32;;;;;;;25.77;13.78;;;;;;;13.75;100.00;100127.38;1691483;84;21560;-71
2021/10/17 08:04:16;;;;;;;22.25;13.35;;;;;;;13.87;100.00;100128.58;1660643;86;21124;-69
2021/10/17 08:07:03;;;;;;;26.23;12.70;;;;;;;14.00;100.00;100127.89;1661304;86;21583;-71
2021/10/17 08:09:31;;;;;;;23.00;12.82;;;;;;;14.24;100.00;100124.81;1660964;86;21123;-70
2021/10/17 08:11:59;;;;;;;21.90;12.03;;;;;;;14.40;100.00;100121.01;1661337;86;21515;-71
2021/10/17 08:14:26;;;;;;;22.15;12.13;;;;;;;14.57;100.00;100126.17;1684800;85;21105;-70
2021/10/17 08:16:53;;;;;;;22.55;11.22;;;;;;;14.69;100.00;100123.28;1659360;85;21019;-71
2021/10/17 08:19:22;;;;;;;21.80;10.40;;;;;;;14.61;100.00;100116.11;1661231;85;21113;-72
2021/10/17 08:21:49;;;;;;;21.02;11.78;;;;;;;14.52;100.00;100119.11;1691547;84;21038;-71
2021/10/17 08:24:16;;;;;;;16.70;9.48;;;;;;;14.50;100.00;100121.19;1662049;85;21572;-71
2021/10/17 08:26:43;;;;;;;21.12;10.78;;;;;;;14.56;100.00;100123.98;1662964;85;21047;-72
2021/10/17 08:29:12;;;;;;;20.15;10.82;;;;;;;14.67;100.00;100119.09;1659794;85;21081;-72
2021/10/17 08:31:39;;;;;;;21.68;10.80;;;;;;;14.74;100.00;100113.18;1683283;85;21124;-71
2021/10/17 08:34:07;;;;;;;20.02;9.95;;;;;;;14.77;100.00;100112.80;1690958;85;21046;-70
2021/10/17 08:36:36;;;;;;;17.35;10.03;;;;;;;14.97;100.00;100116.50;1660191;85;21074;-72
2021/10/17 08:39:03;;;;;;;19.02;10.70;;;;;;;15.27;100.00;100112.73;1649645;85;21541;-72
2021/10/17 08:41:32;;;;;;;19.77;12.20;;;;;;;15.55;100.00;100110.79;1731780;83;21790;-72
2021/10/17 08:44:13;;;;;;;19.50;9.90;;;;;;;15.82;100.00;100111.47;1739365;81;21054;-70
2021/10/17 08:46:43;;;;;;;21.05;10.45;;;;;;;16.18;100.00;100107.59;1742278;82;21026;-73
2021/10/17 08:49:11;;;;;;;18.85;10.23;;;;;;;16.18;100.00;100107.59;1754161;81;21018;-71
2021/10/17 08:51:38;;;;;;;20.77;10.00;;;;;;;16.28;100.00;100103.95;1778853;80;21029;-73
2021/10/17 08:54:07;;;;;;;18.65;10.68;;;;;;;16.33;100.00;100101.44;1778341;81;21006;-71
2021/10/17 08:56:36;;;;;;;17.92;9.30;;;;;;;16.37;100.00;100093.14;1769096;81;21497;-71
2021/10/17 08:59:03;;;;;;;18.17;9.98;;;;;;;16.32;100.00;100101.11;1770273;81;21011;-71
2021/10/17 09:01:38;;;;;;;21.57;9.73;;;;;;;16.32;100.00;100101.11;1766049;81;21035;-71
2021/10/17 09:04:07;;;;;;;17.65;9.45;;;;;;;16.27;100.00;100103.11;1706790;84;21059;-72
2021/10/17 09:06:38;;;;;;;23.83;10.45;;;;;;;16.26;100.00;100103.31;1663116;86;21114;-73
2021/10/17 09:09:15;;;;;;;21.10;10.13;;;;;;;16.18;100.00;100095.31;1678897;85;21087;-71
2021/10/17 09:11:50;;;;;;;18.45;9.63;;;;;;;16.18;100.00;100095.31;1677993;85;21047;-72
2021/10/17 09:14:24;;;;;;;20.75;9.75;;;;;;;15.75;100.00;100089.09;1677845;85;21109;-71
2021/10/17 09:16:54;;;;;;;18.50;9.73;;;;;;;15.75;100.00;100089.09;1677850;85;21576;-72
2021/10/17 09:19:29;;;;;;;19.87;10.05;;;;;;;15.63;100.00;100093.41;1677775;85;21039;-72
2021/10/17 09:22:06;;;;;;;13.70;7.83;;;;;;;15.63;100.00;100093.41;1650548;87;21089;-73
2021/10/17 09:24:42;;;;;;;18.40;8.33;;;;;;;15.63;100.00;100086.60;1593211;90;21127;-74
2021/10/17 09:27:18;;;;;;;13.98;7.95;;;;;;;15.60;100.00;100090.26;1593406;90;21083;-73
2021/10/17 09:29:52;;;;;;;15.98;8.18;;;;;;;15.60;100.00;100084.80;1593404;90;21064;-75
2021/10/17 09:32:22;;;;;;;18.52;8.83;;;;;;;15.57;100.00;100085.53;1593592;90;21067;-75
2021/10/17 09:35:00;;;;;;;16.57;8.38;;;;;;;15.48;100.00;100084.03;1593571;90;21083;-74
2021/10/17 09:37:39;;;;;;;17.75;8.43;;;;;;;15.46;100.00;100083.93;1593259;90;21059;-74
2021/10/17 09:43:13;;;;;;;17.27;8.83;;;;;;;15.57;100.00;100084.17;1528590;94;21117;-75
2021/10/17 09:45:45;;;;;;;22.07;10.72;;;;;;;15.61;100.00;100081.05;1501555;96;21554;-75
2021/10/17 09:48:28;;;;;;;22.30;10.68;;;;;;;15.58;100.00;100080.92;1501711;96;21137;-75
2021/10/17 09:51:11;;;;;;;20.48;10.20;;;;;;;15.60;100.00;100077.99;1501794;95;21172;-73
2021/10/17 09:53:48;;;;;;;18.73;9.28;;;;;;;15.52;100.00;100083.11;1502398;96;21104;-74
2021/10/17 09:56:24;;;;;;;18.87;9.03;;;;;;;15.50;100.00;100079.22;1510464;94;21564;-73
2021/10/17 09:58:54;;;;;;;20.97;8.83;;;;;;;15.55;100.00;100077.25;1520460;94;21087;-75
2021/10/17 10:01:23;;;;;;;20.75;8.75;;;;;;;15.61;100.00;100069.62;1520441;94;21087;-74
2021/10/17 10:03:55;;;;;;;21.73;9.15;;;;;;;15.62;100.00;100067.22;1519849;94;21166;-75
2021/10/17 10:06:22;;;;;;;17.67;8.95;;;;;;;15.65;100.00;100074.14;1526761;94;21591;-75
2021/10/17 10:08:51;;;;;;;20.68;10.98;;;;;;;15.64;100.00;100073.30;1541535;92;21088;-76
2021/10/17 10:11:24;;;;;;;24.70;11.70;;;;;;;15.58;100.00;100070.02;1549250;92;21134;-73
2021/10/17 10:13:52;;;;;;;22.90;11.65;;;;;;;15.51;100.00;100077.32;1546061;92;21167;-74
2021/10/17 10:16:22;;;;;;;20.08;10.40;;;;;;;15.54;100.00;100068.22;1546358;93;21127;-74
2021/10/17 10:18:55;;;;;;;21.33;9.53;;;;;;;15.65;100.00;100072.28;1545449;93;21578;-74
2021/10/17 10:21:23;;;;;;;17.82;8.70;;;;;;;15.74;100.00;100070.18;1545963;93;21167;-74
2021/10/17 10:23:51;;;;;;;21.73;11.03;;;;;;;15.84;100.00;100069.84;1545259;93;21062;-74
2021/10/17 10:26:23;;;;;;;24.18;10.68;;;;;;;15.84;100.00;100069.84;1545741;93;21042;-76
2021/10/17 10:28:50;;;;;;;20.70;10.20;;;;;;;15.87;100.00;100069.44;1636967;87;21025;-74
2021/10/17 10:31:44;;;;;;;22.15;11.38;;;;;;;15.82;100.00;100070.05;1641655;87;21069;-73
2021/10/17 10:34:25;;;;;;;24.23;12.85;;;;;;;15.81;100.00;100064.29;1641980;87;21079;-74
2021/10/17 10:36:54;;;;;;;22.25;12.53;;;;;;;15.80;100.00;100066.69;1538349;93;21610;-75
2021/10/17 10:39:22;;;;;;;25.00;12.95;;;;;;;15.81;100.00;100067.02;1528435;92;21058;-73
2021/10/17 10:42:02;;;;;;;30.52;14.53;;;;;;;15.85;100.00;100063.36;1546913;92;21101;-75
2021/10/17 10:44:36;;;;;;;29.85;16.17;;;;;;;15.86;100.00;100067.22;1520284;93;21090;-73
2021/10/17 10:47:27;;;;;;;31.12;18.35;;;;;;;15.89;100.00;100060.00;1533861;93;21110;-74
2021/10/17 10:49:56;;;;;;;26.80;15.32;;;;;;;15.98;100.00;100055.20;1541410;91;21127;-73
2021/10/17 10:52:37;;;;;;;27.77;14.07;;;;;;;16.09;100.00;100046.40;1507526;95;21694;-74
2021/10/17 10:55:07;;;;;;;24.10;12.80;;;;;;;16.16;100.00;100051.04;1507557;92;21166;-72
2021/10/17 10:57:39;;;;;;;24.15;12.20;;;;;;;16.30;100.00;100051.38;1485234;97;21591;-73
2021/10/17 11:00:09;;;;;;;21.75;11.78;;;;;;;16.46;100.00;100052.31;1494476;95;21594;-75
2021/10/17 11:02:39;;;;;;;23.40;12.25;;;;;;;16.65;100.00;100048.45;1524985;94;21506;-75
2021/10/17 11:05:15;;;;;;;23.10;12.40;;;;;;;16.72;100.00;100045.73;1532105;94;21137;-74
2021/10/17 11:07:46;;;;;;;20.70;10.20;;;;;;;16.79;100.00;100041.09;1457748;98;21113;-74
2021/10/17 11:10:35;;;;;;;26.20;13.40;;;;;;;16.83;100.00;100043.70;1475686;96;21602;-75
2021/10/17 11:13:03;;;;;;;27.85;13.18;;;;;;;16.85;100.00;100039.73;1482600;96;21147;-75
2021/10/17 11:15:34;;;;;;;23.98;11.70;;;;;;;16.87;100.00;100045.84;1514363;95;21092;-75
2021/10/17 11:18:08;;;;;;;20.60;10.72;;;;;;;16.93;100.00;100040.05;1507671;95;21135;-74